sensor_id;sensor_type;location;lat;lon;timestamp;P1;durP1;ratioP1;P2;durP2;ratioP2
45392;SDS011;31129;44.810;10.334;2022-11-24T00:00:05;8.27;;;2.20;;
45392;SDS011;31129;44.810;10.334;2022-11-24T00:02:31;5.50;;;2.28;;
45392;SDS011;31129;44.810;10.334;2022-11-24T00:04:56;3.92;;;2.35;;
45392;SDS011;31129;44.810;10.334;2022-11-24T00:07:22;12.43;;;2.38;;
45392;SDS011;31129;44.810;10.334;2022-11-24T00:09:47;4.43;;;2.53;;
45392;SDS011;31129;44.810;10.334;2022-11-24T00:12:12;3.42;;;2.03;;
45392;SDS011;31129;44.810;10.334;2022-11-24T00:14:38;4.75;;;2.17;;
45392;SDS011;31129;44.810;10.334;2022-11-24T00:17:03;5.38;;;2.00;;
45392;SDS011;31129;44.810;10.334;2022-11-24T00:19:29;4.88;;;2.58;;
45392;SDS011;31129;44.810;10.334;2022-11-24T00:21:54;4.90;;;2.67;;
45392;SDS011;31129;44.810;10.334;2022-11-24T00:24:20;7.75;;;3.63;;
45392;SDS011;31129;44.810;10.334;2022-11-24T00:26:45;5.68;;;2.30;;
45392;SDS011;31129;44.810;10.334;2022-11-24T00:29:11;3.80;;;2.25;;
45392;SDS011;31129;44.810;10.334;2022-11-24T00:31:37;6.70;;;3.10;;
45392;SDS011;31129;44.810;10.334;2022-11-24T00:34:06;9.05;;;2.40;;
45392;SDS011;31129;44.810;10.334;2022-11-24T00:36:34;4.90;;;2.60;;
45392;SDS011;31129;44.810;10.334;2022-11-24T00:39:02;3.97;;;2.20;;
45392;SDS011;31129;44.810;10.334;2022-11-24T00:41:29;7.22;;;2.35;;
45392;SDS011;31129;44.810;10.334;2022-11-24T00:43:55;8.30;;;2.55;;
45392;SDS011;31129;44.810;10.334;2022-11-24T00:46:22;4.68;;;2.10;;
45392;SDS011;31129;44.810;10.334;2022-11-24T00:48:51;7.70;;;2.63;;
45392;SDS011;31129;44.810;10.334;2022-11-24T00:51:18;6.18;;;2.55;;
45392;SDS011;31129;44.810;10.334;2022-11-24T00:53:45;8.50;;;2.47;;
45392;SDS011;31129;44.810;10.334;2022-11-24T00:56:10;8.15;;;2.67;;
45392;SDS011;31129;44.810;10.334;2022-11-24T00:58:36;6.75;;;2.22;;
45392;SDS011;31129;44.810;10.334;2022-11-24T01:01:06;4.57;;;2.20;;
45392;SDS011;31129;44.810;10.334;2022-11-24T01:03:34;6.07;;;2.80;;
45392;SDS011;31129;44.810;10.334;2022-11-24T01:06:10;6.13;;;2.38;;
45392;SDS011;31129;44.810;10.334;2022-11-24T01:08:37;6.32;;;3.35;;
45392;SDS011;31129;44.810;10.334;2022-11-24T01:11:23;4.80;;;2.20;;
45392;SDS011;31129;44.810;10.334;2022-11-24T01:13:57;6.13;;;2.58;;
45392;SDS011;31129;44.810;10.334;2022-11-24T01:16:24;5.13;;;2.17;;
45392;SDS011;31129;44.810;10.334;2022-11-24T01:18:52;5.60;;;2.70;;
45392;SDS011;31129;44.810;10.334;2022-11-24T01:21:18;4.75;;;2.58;;
45392;SDS011;31129;44.810;10.334;2022-11-24T01:23:44;6.97;;;2.70;;
45392;SDS011;31129;44.810;10.334;2022-11-24T01:26:12;6.47;;;2.15;;
45392;SDS011;31129;44.810;10.334;2022-11-24T01:28:39;6.68;;;2.50;;
45392;SDS011;31129;44.810;10.334;2022-11-24T01:31:05;11.07;;;2.70;;
45392;SDS011;31129;44.810;10.334;2022-11-24T01:33:32;7.20;;;2.63;;
45392;SDS011;31129;44.810;10.334;2022-11-24T01:35:59;6.07;;;2.53;;
45392;SDS011;31129;44.810;10.334;2022-11-24T01:38:25;5.75;;;2.72;;
45392;SDS011;31129;44.810;10.334;2022-11-24T01:43:27;7.88;;;2.97;;
45392;SDS011;31129;44.810;10.334;2022-11-24T01:45:52;5.97;;;3.08;;
45392;SDS011;31129;44.810;10.334;2022-11-24T01:48:23;6.63;;;3.50;;
45392;SDS011;31129;44.810;10.334;2022-11-24T01:50:58;9.10;;;3.95;;
45392;SDS011;31129;44.810;10.334;2022-11-24T01:53:34;9.38;;;4.10;;
45392;SDS011;31129;44.810;10.334;2022-11-24T01:56:01;11.38;;;4.28;;
45392;SDS011;31129;44.810;10.334;2022-11-24T01:58:28;20.55;;;4.50;;
45392;SDS011;31129;44.810;10.334;2022-11-24T02:00:56;10.35;;;4.22;;
45392;SDS011;31129;44.810;10.334;2022-11-24T02:03:22;9.27;;;4.30;;
45392;SDS011;31129;44.810;10.334;2022-11-24T02:08:33;9.57;;;3.95;;
45392;SDS011;31129;44.810;10.334;2022-11-24T02:11:05;8.63;;;4.22;;
45392;SDS011;31129;44.810;10.334;2022-11-24T02:13:33;8.88;;;5.00;;
45392;SDS011;31129;44.810;10.334;2022-11-24T02:16:02;7.18;;;3.70;;
45392;SDS011;31129;44.810;10.334;2022-11-24T02:18:29;6.70;;;3.97;;
45392;SDS011;31129;44.810;10.334;2022-11-24T02:20:55;5.68;;;3.75;;
45392;SDS011;31129;44.810;10.334;2022-11-24T02:23:29;6.07;;;3.33;;
45392;SDS011;31129;44.810;10.334;2022-11-24T02:28:50;7.35;;;3.78;;
45392;SDS011;31129;44.810;10.334;2022-11-24T02:31:16;8.55;;;3.38;;
45392;SDS011;31129;44.810;10.334;2022-11-24T02:33:42;13.70;;;3.47;;
45392;SDS011;31129;44.810;10.334;2022-11-24T02:36:08;8.98;;;3.83;;
45392;SDS011;31129;44.810;10.334;2022-11-24T02:38:34;11.98;;;3.58;;
45392;SDS011;31129;44.810;10.334;2022-11-24T02:41:01;6.18;;;3.20;;
45392;SDS011;31129;44.810;10.334;2022-11-24T02:43:31;7.90;;;3.95;;
45392;SDS011;31129;44.810;10.334;2022-11-24T02:46:01;12.25;;;3.72;;
45392;SDS011;31129;44.810;10.334;2022-11-24T02:48:26;7.45;;;3.35;;
45392;SDS011;31129;44.810;10.334;2022-11-24T02:50:52;17.25;;;5.55;;
45392;SDS011;31129;44.810;10.334;2022-11-24T02:53:18;8.02;;;3.30;;
45392;SDS011;31129;44.810;10.334;2022-11-24T02:55:43;9.82;;;3.58;;
45392;SDS011;31129;44.810;10.334;2022-11-24T02:58:09;7.82;;;3.00;;
45392;SDS011;31129;44.810;10.334;2022-11-24T03:00:34;10.05;;;3.53;;
45392;SDS011;31129;44.810;10.334;2022-11-24T03:03:00;11.43;;;3.45;;
45392;SDS011;31129;44.810;10.334;2022-11-24T03:05:25;7.85;;;3.40;;
45392;SDS011;31129;44.810;10.334;2022-11-24T03:07:51;7.70;;;3.63;;
45392;SDS011;31129;44.810;10.334;2022-11-24T03:10:16;8.93;;;4.55;;
45392;SDS011;31129;44.810;10.334;2022-11-24T03:12:42;11.60;;;4.40;;
45392;SDS011;31129;44.810;10.334;2022-11-24T03:15:07;6.65;;;4.20;;
45392;SDS011;31129;44.810;10.334;2022-11-24T03:17:33;10.43;;;4.63;;
45392;SDS011;31129;44.810;10.334;2022-11-24T03:19:59;6.43;;;4.50;;
45392;SDS011;31129;44.810;10.334;2022-11-24T03:22:26;10.40;;;5.97;;
45392;SDS011;31129;44.810;10.334;2022-11-24T03:24:52;8.70;;;5.20;;
45392;SDS011;31129;44.810;10.334;2022-11-24T03:27:18;11.27;;;5.10;;
45392;SDS011;31129;44.810;10.334;2022-11-24T03:29:43;8.90;;;4.50;;
45392;SDS011;31129;44.810;10.334;2022-11-24T03:32:09;9.05;;;4.65;;
45392;SDS011;31129;44.810;10.334;2022-11-24T03:34:34;7.95;;;4.00;;
45392;SDS011;31129;44.810;10.334;2022-11-24T03:36:59;9.05;;;5.82;;
45392;SDS011;31129;44.810;10.334;2022-11-24T03:39:28;8.15;;;4.63;;
45392;SDS011;31129;44.810;10.334;2022-11-24T03:41:53;9.50;;;4.68;;
45392;SDS011;31129;44.810;10.334;2022-11-24T03:44:19;12.48;;;4.50;;
45392;SDS011;31129;44.810;10.334;2022-11-24T03:46:44;7.78;;;4.20;;
45392;SDS011;31129;44.810;10.334;2022-11-24T03:49:09;12.98;;;3.97;;
45392;SDS011;31129;44.810;10.334;2022-11-24T03:51:35;12.27;;;4.18;;
45392;SDS011;31129;44.810;10.334;2022-11-24T03:54:01;5.93;;;3.10;;
45392;SDS011;31129;44.810;10.334;2022-11-24T03:56:26;6.90;;;2.60;;
45392;SDS011;31129;44.810;10.334;2022-11-24T03:58:52;6.10;;;3.42;;
45392;SDS011;31129;44.810;10.334;2022-11-24T04:01:18;6.07;;;3.20;;
45392;SDS011;31129;44.810;10.334;2022-11-24T04:03:43;7.22;;;3.10;;
45392;SDS011;31129;44.810;10.334;2022-11-24T04:06:09;4.10;;;2.50;;
45392;SDS011;31129;44.810;10.334;2022-11-24T04:08:34;5.88;;;2.53;;
45392;SDS011;31129;44.810;10.334;2022-11-24T04:11:03;7.47;;;3.03;;
45392;SDS011;31129;44.810;10.334;2022-11-24T04:13:28;2.90;;;2.03;;
45392;SDS011;31129;44.810;10.334;2022-11-24T04:15:54;6.40;;;2.60;;
45392;SDS011;31129;44.810;10.334;2022-11-24T04:18:19;4.65;;;2.50;;
45392;SDS011;31129;44.810;10.334;2022-11-24T04:20:47;4.50;;;2.10;;
45392;SDS011;31129;44.810;10.334;2022-11-24T04:23:14;4.65;;;2.45;;
45392;SDS011;31129;44.810;10.334;2022-11-24T04:25:39;5.05;;;2.20;;
45392;SDS011;31129;44.810;10.334;2022-11-24T04:28:07;3.00;;;1.98;;
45392;SDS011;31129;44.810;10.334;2022-11-24T04:30:32;6.15;;;2.28;;
45392;SDS011;31129;44.810;10.334;2022-11-24T04:32:58;6.75;;;2.85;;
45392;SDS011;31129;44.810;10.334;2022-11-24T04:35:23;6.95;;;2.30;;
45392;SDS011;31129;44.810;10.334;2022-11-24T04:37:49;7.80;;;2.25;;
45392;SDS011;31129;44.810;10.334;2022-11-24T04:40:14;2.63;;;2.08;;
45392;SDS011;31129;44.810;10.334;2022-11-24T04:42:40;13.05;;;3.35;;
45392;SDS011;31129;44.810;10.334;2022-11-24T04:45:06;4.45;;;2.13;;
45392;SDS011;31129;44.810;10.334;2022-11-24T04:47:32;6.43;;;1.80;;
45392;SDS011;31129;44.810;10.334;2022-11-24T04:49:58;6.60;;;2.13;;
45392;SDS011;31129;44.810;10.334;2022-11-24T04:52:24;9.48;;;2.10;;
45392;SDS011;31129;44.810;10.334;2022-11-24T04:54:50;6.47;;;1.95;;
45392;SDS011;31129;44.810;10.334;2022-11-24T04:57:22;4.57;;;2.13;;
45392;SDS011;31129;44.810;10.334;2022-11-24T04:59:50;3.08;;;2.00;;
45392;SDS011;31129;44.810;10.334;2022-11-24T05:02:16;5.68;;;2.40;;
45392;SDS011;31129;44.810;10.334;2022-11-24T05:04:42;5.07;;;2.00;;
45392;SDS011;31129;44.810;10.334;2022-11-24T05:07:11;3.75;;;1.75;;
45392;SDS011;31129;44.810;10.334;2022-11-24T05:09:37;4.80;;;2.00;;
45392;SDS011;31129;44.810;10.334;2022-11-24T05:12:23;5.47;;;1.70;;
45392;SDS011;31129;44.810;10.334;2022-11-24T05:14:49;3.22;;;1.70;;
45392;SDS011;31129;44.810;10.334;2022-11-24T05:17:15;3.78;;;1.92;;
45392;SDS011;31129;44.810;10.334;2022-11-24T05:19:40;4.07;;;1.63;;
45392;SDS011;31129;44.810;10.334;2022-11-24T05:22:06;2.67;;;1.42;;
45392;SDS011;31129;44.810;10.334;2022-11-24T05:24:31;5.95;;;1.85;;
45392;SDS011;31129;44.810;10.334;2022-11-24T05:26:57;2.67;;;1.70;;
45392;SDS011;31129;44.810;10.334;2022-11-24T05:29:22;3.90;;;1.70;;
45392;SDS011;31129;44.810;10.334;2022-11-24T05:31:48;6.95;;;1.75;;
45392;SDS011;31129;44.810;10.334;2022-11-24T05:34:13;7.13;;;2.08;;
45392;SDS011;31129;44.810;10.334;2022-11-24T05:36:39;4.63;;;1.80;;
45392;SDS011;31129;44.810;10.334;2022-11-24T05:39:17;3.67;;;2.13;;
45392;SDS011;31129;44.810;10.334;2022-11-24T05:41:42;4.90;;;1.80;;
45392;SDS011;31129;44.810;10.334;2022-11-24T05:44:08;4.10;;;1.83;;
45392;SDS011;31129;44.810;10.334;2022-11-24T05:46:33;6.38;;;1.60;;
45392;SDS011;31129;44.810;10.334;2022-11-24T05:48:59;3.95;;;1.92;;
45392;SDS011;31129;44.810;10.334;2022-11-24T05:51:24;5.72;;;1.90;;
45392;SDS011;31129;44.810;10.334;2022-11-24T05:53:50;3.63;;;1.70;;
45392;SDS011;31129;44.810;10.334;2022-11-24T05:56:15;3.63;;;2.10;;
45392;SDS011;31129;44.810;10.334;2022-11-24T05:58:41;8.93;;;2.45;;
45392;SDS011;31129;44.810;10.334;2022-11-24T06:01:07;5.85;;;1.85;;
45392;SDS011;31129;44.810;10.334;2022-11-24T06:03:32;4.25;;;1.70;;
45392;SDS011;31129;44.810;10.334;2022-11-24T06:05:58;5.85;;;1.60;;
45392;SDS011;31129;44.810;10.334;2022-11-24T06:08:23;3.08;;;1.55;;
45392;SDS011;31129;44.810;10.334;2022-11-24T06:10:49;1.83;;;1.52;;
45392;SDS011;31129;44.810;10.334;2022-11-24T06:13:14;6.07;;;1.67;;
45392;SDS011;31129;44.810;10.334;2022-11-24T06:15:40;2.40;;;1.33;;
45392;SDS011;31129;44.810;10.334;2022-11-24T06:18:05;15.38;;;2.35;;
45392;SDS011;31129;44.810;10.334;2022-11-24T06:20:34;6.13;;;2.42;;
45392;SDS011;31129;44.810;10.334;2022-11-24T06:22:59;5.35;;;2.50;;
45392;SDS011;31129;44.810;10.334;2022-11-24T06:25:25;2.53;;;1.58;;
45392;SDS011;31129;44.810;10.334;2022-11-24T06:27:51;4.22;;;1.65;;
45392;SDS011;31129;44.810;10.334;2022-11-24T06:30:17;4.13;;;2.67;;
45392;SDS011;31129;44.810;10.334;2022-11-24T06:32:42;4.65;;;2.63;;
45392;SDS011;31129;44.810;10.334;2022-11-24T06:35:11;4.97;;;2.30;;
45392;SDS011;31129;44.810;10.334;2022-11-24T06:37:37;5.10;;;1.90;;
45392;SDS011;31129;44.810;10.334;2022-11-24T06:40:03;4.53;;;1.77;;
45392;SDS011;31129;44.810;10.334;2022-11-24T06:42:29;6.63;;;1.92;;
45392;SDS011;31129;44.810;10.334;2022-11-24T06:44:55;9.65;;;2.53;;
45392;SDS011;31129;44.810;10.334;2022-11-24T06:47:20;6.00;;;2.00;;
45392;SDS011;31129;44.810;10.334;2022-11-24T06:49:46;3.92;;;2.13;;
45392;SDS011;31129;44.810;10.334;2022-11-24T06:52:11;11.18;;;2.40;;
45392;SDS011;31129;44.810;10.334;2022-11-24T06:54:37;9.45;;;2.10;;
45392;SDS011;31129;44.810;10.334;2022-11-24T06:57:02;4.38;;;1.88;;
45392;SDS011;31129;44.810;10.334;2022-11-24T06:59:28;4.15;;;2.10;;
45392;SDS011;31129;44.810;10.334;2022-11-24T07:01:53;5.93;;;2.05;;
45392;SDS011;31129;44.810;10.334;2022-11-24T07:04:19;55.30;;;34.80;;
45392;SDS011;31129;44.810;10.334;2022-11-24T07:06:44;9.93;;;4.53;;
45392;SDS011;31129;44.810;10.334;2022-11-24T07:09:10;5.10;;;2.22;;
45392;SDS011;31129;44.810;10.334;2022-11-24T07:11:37;6.82;;;2.10;;
45392;SDS011;31129;44.810;10.334;2022-11-24T07:14:03;4.03;;;2.28;;
45392;SDS011;31129;44.810;10.334;2022-11-24T07:16:29;11.02;;;3.25;;
45392;SDS011;31129;44.810;10.334;2022-11-24T07:18:56;8.88;;;3.53;;
45392;SDS011;31129;44.810;10.334;2022-11-24T07:21:22;8.13;;;2.72;;
45392;SDS011;31129;44.810;10.334;2022-11-24T07:23:53;8.45;;;3.33;;
45392;SDS011;31129;44.810;10.334;2022-11-24T07:26:20;7.13;;;3.15;;
45392;SDS011;31129;44.810;10.334;2022-11-24T07:28:47;7.70;;;3.05;;
45392;SDS011;31129;44.810;10.334;2022-11-24T07:31:13;6.72;;;2.28;;
45392;SDS011;31129;44.810;10.334;2022-11-24T07:33:43;4.75;;;2.85;;
45392;SDS011;31129;44.810;10.334;2022-11-24T07:36:12;10.80;;;2.88;;
45392;SDS011;31129;44.810;10.334;2022-11-24T07:38:37;11.13;;;2.78;;
45392;SDS011;31129;44.810;10.334;2022-11-24T07:41:04;13.55;;;4.18;;
45392;SDS011;31129;44.810;10.334;2022-11-24T07:43:31;10.93;;;3.25;;
45392;SDS011;31129;44.810;10.334;2022-11-24T07:45:58;7.13;;;2.38;;
45392;SDS011;31129;44.810;10.334;2022-11-24T07:48:23;10.13;;;3.00;;
45392;SDS011;31129;44.810;10.334;2022-11-24T07:50:49;11.95;;;3.25;;
45392;SDS011;31129;44.810;10.334;2022-11-24T07:53:15;14.52;;;3.03;;
45392;SDS011;31129;44.810;10.334;2022-11-24T07:55:41;7.72;;;3.28;;
45392;SDS011;31129;44.810;10.334;2022-11-24T07:58:06;10.02;;;4.85;;
45392;SDS011;31129;44.810;10.334;2022-11-24T08:00:32;12.98;;;4.68;;
45392;SDS011;31129;44.810;10.334;2022-11-24T08:02:58;8.60;;;4.05;;
45392;SDS011;31129;44.810;10.334;2022-11-24T08:05:23;7.90;;;3.47;;
45392;SDS011;31129;44.810;10.334;2022-11-24T08:07:49;11.60;;;4.55;;
45392;SDS011;31129;44.810;10.334;2022-11-24T08:10:14;14.85;;;5.60;;
45392;SDS011;31129;44.810;10.334;2022-11-24T08:12:40;7.88;;;3.10;;
45392;SDS011;31129;44.810;10.334;2022-11-24T08:15:06;5.85;;;3.15;;
45392;SDS011;31129;44.810;10.334;2022-11-24T08:17:32;12.82;;;3.30;;
45392;SDS011;31129;44.810;10.334;2022-11-24T08:19:58;11.50;;;4.07;;
45392;SDS011;31129;44.810;10.334;2022-11-24T08:22:23;18.42;;;4.40;;
45392;SDS011;31129;44.810;10.334;2022-11-24T08:24:49;8.18;;;3.45;;
45392;SDS011;31129;44.810;10.334;2022-11-24T08:27:16;11.52;;;4.35;;
45392;SDS011;31129;44.810;10.334;2022-11-24T08:29:42;15.60;;;3.80;;
45392;SDS011;31129;44.810;10.334;2022-11-24T08:32:09;12.90;;;4.22;;
45392;SDS011;31129;44.810;10.334;2022-11-24T08:34:35;11.60;;;3.58;;
45392;SDS011;31129;44.810;10.334;2022-11-24T08:37:04;11.98;;;3.97;;
45392;SDS011;31129;44.810;10.334;2022-11-24T08:39:30;8.57;;;4.00;;
45392;SDS011;31129;44.810;10.334;2022-11-24T08:41:56;11.25;;;4.10;;
45392;SDS011;31129;44.810;10.334;2022-11-24T08:44:22;8.35;;;4.20;;
45392;SDS011;31129;44.810;10.334;2022-11-24T08:46:47;13.63;;;4.15;;
45392;SDS011;31129;44.810;10.334;2022-11-24T08:49:14;9.38;;;3.80;;
45392;SDS011;31129;44.810;10.334;2022-11-24T08:51:40;8.98;;;3.80;;
45392;SDS011;31129;44.810;10.334;2022-11-24T08:54:05;11.90;;;3.85;;
45392;SDS011;31129;44.810;10.334;2022-11-24T08:56:37;11.00;;;3.97;;
45392;SDS011;31129;44.810;10.334;2022-11-24T08:59:06;14.70;;;3.45;;
45392;SDS011;31129;44.810;10.334;2022-11-24T09:01:31;15.43;;;3.33;;
45392;SDS011;31129;44.810;10.334;2022-11-24T09:03:57;13.02;;;4.65;;
45392;SDS011;31129;44.810;10.334;2022-11-24T09:06:24;8.23;;;3.40;;
45392;SDS011;31129;44.810;10.334;2022-11-24T09:08:54;16.30;;;3.03;;
45392;SDS011;31129;44.810;10.334;2022-11-24T09:11:20;8.40;;;2.85;;
45392;SDS011;31129;44.810;10.334;2022-11-24T09:13:45;5.05;;;2.45;;
45392;SDS011;31129;44.810;10.334;2022-11-24T09:16:12;7.93;;;2.38;;
45392;SDS011;31129;44.810;10.334;2022-11-24T09:18:39;4.90;;;2.22;;
45392;SDS011;31129;44.810;10.334;2022-11-24T09:21:11;3.85;;;2.20;;
45392;SDS011;31129;44.810;10.334;2022-11-24T09:23:43;5.00;;;2.00;;
45392;SDS011;31129;44.810;10.334;2022-11-24T09:26:11;6.85;;;2.60;;
45392;SDS011;31129;44.810;10.334;2022-11-24T09:28:38;4.45;;;2.17;;
45392;SDS011;31129;44.810;10.334;2022-11-24T09:31:05;4.43;;;2.05;;
45392;SDS011;31129;44.810;10.334;2022-11-24T09:33:32;6.67;;;2.63;;
45392;SDS011;31129;44.810;10.334;2022-11-24T09:36:01;8.23;;;2.58;;
45392;SDS011;31129;44.810;10.334;2022-11-24T09:38:27;5.50;;;2.55;;
45392;SDS011;31129;44.810;10.334;2022-11-24T09:40:53;6.55;;;3.17;;
45392;SDS011;31129;44.810;10.334;2022-11-24T09:48:43;6.93;;;2.60;;
45392;SDS011;31129;44.810;10.334;2022-11-24T09:51:15;6.55;;;2.42;;
45392;SDS011;31129;44.810;10.334;2022-11-24T09:53:52;5.05;;;2.15;;
45392;SDS011;31129;44.810;10.334;2022-11-24T09:56:27;5.32;;;2.65;;
45392;SDS011;31129;44.810;10.334;2022-11-24T09:58:58;11.13;;;4.25;;
45392;SDS011;31129;44.810;10.334;2022-11-24T10:01:33;16.73;;;7.47;;
45392;SDS011;31129;44.810;10.334;2022-11-24T10:04:01;14.15;;;7.93;;
45392;SDS011;31129;44.810;10.334;2022-11-24T10:06:37;12.95;;;8.30;;
45392;SDS011;31129;44.810;10.334;2022-11-24T10:12:04;14.02;;;7.82;;
45392;SDS011;31129;44.810;10.334;2022-11-24T10:14:55;13.93;;;7.88;;
45392;SDS011;31129;44.810;10.334;2022-11-24T10:28:08;13.45;;;8.98;;
45392;SDS011;31129;44.810;10.334;2022-11-24T10:30:37;18.15;;;10.00;;
45392;SDS011;31129;44.810;10.334;2022-11-24T10:33:15;15.45;;;10.00;;
45392;SDS011;31129;44.810;10.334;2022-11-24T10:40:56;16.60;;;10.90;;
45392;SDS011;31129;44.810;10.334;2022-11-24T10:43:26;24.73;;;11.15;;
45392;SDS011;31129;44.810;10.334;2022-11-24T10:45:53;18.75;;;10.25;;
45392;SDS011;31129;44.810;10.334;2022-11-24T10:48:24;15.85;;;9.48;;
45392;SDS011;31129;44.810;10.334;2022-11-24T10:51:05;14.37;;;10.37;;
45392;SDS011;31129;44.810;10.334;2022-11-24T10:54:04;18.45;;;10.98;;
45392;SDS011;31129;44.810;10.334;2022-11-24T10:56:45;15.20;;;9.90;;
45392;SDS011;31129;44.810;10.334;2022-11-24T11:01:50;15.37;;;9.33;;
45392;SDS011;31129;44.810;10.334;2022-11-24T11:04:17;15.98;;;10.20;;
45392;SDS011;31129;44.810;10.334;2022-11-24T11:09:15;16.45;;;10.60;;
45392;SDS011;31129;44.810;10.334;2022-11-24T11:11:44;18.17;;;10.30;;
45392;SDS011;31129;44.810;10.334;2022-11-24T11:14:12;21.20;;;10.68;;
45392;SDS011;31129;44.810;10.334;2022-11-24T11:16:54;16.75;;;9.63;;
45392;SDS011;31129;44.810;10.334;2022-11-24T11:19:40;12.80;;;8.77;;
45392;SDS011;31129;44.810;10.334;2022-11-24T11:24:39;11.55;;;7.80;;
45392;SDS011;31129;44.810;10.334;2022-11-24T11:29:51;15.50;;;9.48;;
45392;SDS011;31129;44.810;10.334;2022-11-24T11:32:21;15.75;;;9.45;;
45392;SDS011;31129;44.810;10.334;2022-11-24T11:34:49;14.93;;;9.27;;
45392;SDS011;31129;44.810;10.334;2022-11-24T11:37:16;19.48;;;10.13;;
45392;SDS011;31129;44.810;10.334;2022-11-24T11:39:44;16.45;;;8.93;;
45392;SDS011;31129;44.810;10.334;2022-11-24T11:42:46;13.75;;;8.43;;
45392;SDS011;31129;44.810;10.334;2022-11-24T11:45:42;12.70;;;8.27;;
45392;SDS011;31129;44.810;10.334;2022-11-24T11:56:00;13.20;;;7.80;;
45392;SDS011;31129;44.810;10.334;2022-11-24T12:15:05;10.88;;;7.78;;
45392;SDS011;31129;44.810;10.334;2022-11-24T12:28:45;12.75;;;7.75;;
45392;SDS011;31129;44.810;10.334;2022-11-24T12:31:27;13.43;;;7.88;;
45392;SDS011;31129;44.810;10.334;2022-11-24T12:45:23;12.00;;;8.15;;
45392;SDS011;31129;44.810;10.334;2022-11-24T12:47:58;17.00;;;9.10;;
45392;SDS011;31129;44.810;10.334;2022-11-24T12:50:28;16.15;;;9.18;;
45392;SDS011;31129;44.810;10.334;2022-11-24T12:53:02;16.77;;;9.00;;
45392;SDS011;31129;44.810;10.334;2022-11-24T12:55:43;19.15;;;9.35;;
45392;SDS011;31129;44.810;10.334;2022-11-24T12:58:18;14.00;;;8.95;;
45392;SDS011;31129;44.810;10.334;2022-11-24T13:09:08;12.40;;;8.38;;
45392;SDS011;31129;44.810;10.334;2022-11-24T13:11:36;16.65;;;8.52;;
45392;SDS011;31129;44.810;10.334;2022-11-24T13:19:14;14.30;;;8.73;;
45392;SDS011;31129;44.810;10.334;2022-11-24T13:29:28;14.63;;;8.85;;
45392;SDS011;31129;44.810;10.334;2022-11-24T13:42:13;13.07;;;7.90;;
45392;SDS011;31129;44.810;10.334;2022-11-24T13:44:46;14.65;;;8.23;;
45392;SDS011;31129;44.810;10.334;2022-11-24T13:52:56;15.25;;;9.25;;
45392;SDS011;31129;44.810;10.334;2022-11-24T13:55:34;14.63;;;8.00;;
45392;SDS011;31129;44.810;10.334;2022-11-24T14:00:59;15.30;;;8.50;;
45392;SDS011;31129;44.810;10.334;2022-11-24T14:03:25;14.52;;;8.40;;
45392;SDS011;31129;44.810;10.334;2022-11-24T14:05:54;14.15;;;8.55;;
45392;SDS011;31129;44.810;10.334;2022-11-24T14:08:24;11.43;;;8.73;;
45392;SDS011;31129;44.810;10.334;2022-11-24T14:10:56;13.55;;;9.07;;
45392;SDS011;31129;44.810;10.334;2022-11-24T14:13:26;13.45;;;9.02;;
45392;SDS011;31129;44.810;10.334;2022-11-24T14:18:36;13.55;;;8.90;;
45392;SDS011;31129;44.810;10.334;2022-11-24T14:23:44;15.15;;;9.55;;
45392;SDS011;31129;44.810;10.334;2022-11-24T14:26:23;22.48;;;10.07;;
45392;SDS011;31129;44.810;10.334;2022-11-24T14:29:03;20.58;;;9.25;;
45392;SDS011;31129;44.810;10.334;2022-11-24T14:31:54;14.93;;;9.52;;
45392;SDS011;31129;44.810;10.334;2022-11-24T14:34:21;14.90;;;9.35;;
45392;SDS011;31129;44.810;10.334;2022-11-24T14:36:48;17.88;;;10.45;;
45392;SDS011;31129;44.810;10.334;2022-11-24T14:39:18;20.20;;;10.32;;
45392;SDS011;31129;44.810;10.334;2022-11-24T14:42:00;23.50;;;10.60;;
45392;SDS011;31129;44.810;10.334;2022-11-24T14:44:32;15.10;;;9.18;;
45392;SDS011;31129;44.810;10.334;2022-11-24T14:47:01;18.67;;;10.45;;
45392;SDS011;31129;44.810;10.334;2022-11-24T14:49:28;16.45;;;8.95;;
45392;SDS011;31129;44.810;10.334;2022-11-24T14:51:56;17.90;;;10.15;;
45392;SDS011;31129;44.810;10.334;2022-11-24T14:54:25;17.02;;;9.48;;
45392;SDS011;31129;44.810;10.334;2022-11-24T14:56:58;16.00;;;9.45;;
45392;SDS011;31129;44.810;10.334;2022-11-24T14:59:29;14.40;;;10.30;;
45392;SDS011;31129;44.810;10.334;2022-11-24T15:01:58;14.57;;;10.05;;
45392;SDS011;31129;44.810;10.334;2022-11-24T15:04:28;19.58;;;10.77;;
45392;SDS011;31129;44.810;10.334;2022-11-24T15:09:49;19.45;;;9.68;;
45392;SDS011;31129;44.810;10.334;2022-11-24T15:15:00;12.57;;;9.35;;
45392;SDS011;31129;44.810;10.334;2022-11-24T15:17:29;18.52;;;10.05;;
45392;SDS011;31129;44.810;10.334;2022-11-24T15:20:02;19.15;;;10.93;;
45392;SDS011;31129;44.810;10.334;2022-11-24T15:22:40;25.95;;;11.50;;
45392;SDS011;31129;44.810;10.334;2022-11-24T15:28:06;22.75;;;11.68;;
45392;SDS011;31129;44.810;10.334;2022-11-24T15:30:33;19.33;;;11.93;;
45392;SDS011;31129;44.810;10.334;2022-11-24T15:33:01;16.30;;;11.32;;
45392;SDS011;31129;44.810;10.334;2022-11-24T15:35:28;26.02;;;12.48;;
45392;SDS011;31129;44.810;10.334;2022-11-24T15:37:55;20.85;;;11.98;;
45392;SDS011;31129;44.810;10.334;2022-11-24T15:40:20;25.48;;;11.30;;
45392;SDS011;31129;44.810;10.334;2022-11-24T15:42:50;19.38;;;11.40;;
45392;SDS011;31129;44.810;10.334;2022-11-24T15:45:18;18.15;;;11.52;;
45392;SDS011;31129;44.810;10.334;2022-11-24T15:47:45;21.48;;;11.73;;
45392;SDS011;31129;44.810;10.334;2022-11-24T15:50:11;23.10;;;12.07;;
45392;SDS011;31129;44.810;10.334;2022-11-24T15:52:36;23.35;;;13.23;;
45392;SDS011;31129;44.810;10.334;2022-11-24T15:55:02;20.33;;;12.75;;
45392;SDS011;31129;44.810;10.334;2022-11-24T15:57:29;22.02;;;13.07;;
45392;SDS011;31129;44.810;10.334;2022-11-24T15:59:58;22.50;;;13.13;;
45392;SDS011;31129;44.810;10.334;2022-11-24T16:02:24;19.23;;;12.65;;
45392;SDS011;31129;44.810;10.334;2022-11-24T16:04:49;23.30;;;12.60;;
45392;SDS011;31129;44.810;10.334;2022-11-24T16:07:15;28.77;;;13.82;;
45392;SDS011;31129;44.810;10.334;2022-11-24T16:09:41;22.58;;;12.98;;
45392;SDS011;31129;44.810;10.334;2022-11-24T16:12:07;26.00;;;13.07;;
45392;SDS011;31129;44.810;10.334;2022-11-24T16:14:33;22.98;;;12.50;;
45392;SDS011;31129;44.810;10.334;2022-11-24T16:16:59;23.58;;;13.13;;
45392;SDS011;31129;44.810;10.334;2022-11-24T16:19:24;26.73;;;14.07;;
45392;SDS011;31129;44.810;10.334;2022-11-24T16:21:50;21.83;;;13.00;;
45392;SDS011;31129;44.810;10.334;2022-11-24T16:24:16;26.85;;;13.38;;
45392;SDS011;31129;44.810;10.334;2022-11-24T16:26:41;21.27;;;13.30;;
45392;SDS011;31129;44.810;10.334;2022-11-24T16:29:07;31.00;;;14.20;;
45392;SDS011;31129;44.810;10.334;2022-11-24T16:31:32;26.88;;;14.25;;
45392;SDS011;31129;44.810;10.334;2022-11-24T16:36:26;26.52;;;13.93;;
45392;SDS011;31129;44.810;10.334;2022-11-24T16:38:52;28.73;;;13.70;;
45392;SDS011;31129;44.810;10.334;2022-11-24T16:41:18;26.77;;;14.73;;
45392;SDS011;31129;44.810;10.334;2022-11-24T16:43:45;24.05;;;14.10;;
45392;SDS011;31129;44.810;10.334;2022-11-24T16:46:18;24.77;;;14.27;;
45392;SDS011;31129;44.810;10.334;2022-11-24T16:48:46;26.85;;;14.95;;
45392;SDS011;31129;44.810;10.334;2022-11-24T16:51:13;30.35;;;16.70;;
45392;SDS011;31129;44.810;10.334;2022-11-24T16:53:39;31.13;;;15.88;;
45392;SDS011;31129;44.810;10.334;2022-11-24T16:56:04;30.15;;;15.40;;